sensor_id;sensor_type;location;lat;lon;timestamp;P1;durP1;ratioP1;P2;durP2;ratioP2
21036;SDS011;10677;50.942;4.028;2023-07-09T00:01:16;9.98;;;4.90;;
21036;SDS011;10677;50.942;4.028;2023-07-09T00:03:43;9.27;;;5.10;;
21036;SDS011;10677;50.942;4.028;2023-07-09T00:06:16;9.95;;;4.70;;
21036;SDS011;10677;50.942;4.028;2023-07-09T00:08:44;10.15;;;5.20;;
21036;SDS011;10677;50.942;4.028;2023-07-09T00:11:12;9.20;;;5.10;;
21036;SDS011;10677;50.942;4.028;2023-07-09T00:13:38;11.15;;;5.07;;
21036;SDS011;10677;50.942;4.028;2023-07-09T00:16:07;9.02;;;5.32;;
21036;SDS011;10677;50.942;4.028;2023-07-09T00:18:41;15.02;;;5.88;;
21036;SDS011;10677;50.942;4.028;2023-07-09T00:21:08;9.63;;;5.80;;
21036;SDS011;10677;50.942;4.028;2023-07-09T00:23:33;12.70;;;5.82;;
21036;SDS011;10677;50.942;4.028;2023-07-09T00:25:59;11.05;;;5.90;;
21036;SDS011;10677;50.942;4.028;2023-07-09T00:28:28;9.80;;;5.70;;
21036;SDS011;10677;50.942;4.028;2023-07-09T00:30:53;10.20;;;6.30;;
21036;SDS011;10677;50.942;4.028;2023-07-09T00:33:19;10.98;;;5.80;;
21036;SDS011;10677;50.942;4.028;2023-07-09T00:35:45;10.70;;;6.20;;
21036;SDS011;10677;50.942;4.028;2023-07-09T00:38:18;11.10;;;6.47;;
21036;SDS011;10677;50.942;4.028;2023-07-09T00:40:58;9.88;;;6.07;;
21036;SDS011;10677;50.942;4.028;2023-07-09T00:43:26;14.80;;;6.88;;
21036;SDS011;10677;50.942;4.028;2023-07-09T00:49:04;8.98;;;5.68;;
21036;SDS011;10677;50.942;4.028;2023-07-09T00:51:36;10.02;;;6.43;;
21036;SDS011;10677;50.942;4.028;2023-07-09T00:54:18;21.92;;;6.88;;
21036;SDS011;10677;50.942;4.028;2023-07-09T00:56:55;10.95;;;6.68;;
21036;SDS011;10677;50.942;4.028;2023-07-09T00:59:25;10.93;;;6.28;;
21036;SDS011;10677;50.942;4.028;2023-07-09T01:01:56;12.10;;;6.40;;
21036;SDS011;10677;50.942;4.028;2023-07-09T01:04:24;9.77;;;6.35;;
21036;SDS011;10677;50.942;4.028;2023-07-09T01:06:52;12.40;;;6.53;;
21036;SDS011;10677;50.942;4.028;2023-07-09T01:09:19;12.93;;;6.97;;
21036;SDS011;10677;50.942;4.028;2023-07-09T01:11:47;11.73;;;6.35;;
21036;SDS011;10677;50.942;4.028;2023-07-09T01:14:16;13.88;;;6.93;;
21036;SDS011;10677;50.942;4.028;2023-07-09T01:16:48;12.10;;;6.70;;
21036;SDS011;10677;50.942;4.028;2023-07-09T01:19:25;12.05;;;7.57;;
21036;SDS011;10677;50.942;4.028;2023-07-09T01:21:56;14.65;;;8.10;;
21036;SDS011;10677;50.942;4.028;2023-07-09T01:27:25;12.93;;;7.55;;
21036;SDS011;10677;50.942;4.028;2023-07-09T01:29:54;13.20;;;7.03;;
21036;SDS011;10677;50.942;4.028;2023-07-09T01:32:21;12.57;;;7.57;;
21036;SDS011;10677;50.942;4.028;2023-07-09T01:34:48;13.05;;;7.50;;
21036;SDS011;10677;50.942;4.028;2023-07-09T01:37:20;12.35;;;8.00;;
21036;SDS011;10677;50.942;4.028;2023-07-09T01:39:49;13.48;;;7.53;;
21036;SDS011;10677;50.942;4.028;2023-07-09T01:42:16;10.57;;;6.93;;
21036;SDS011;10677;50.942;4.028;2023-07-09T01:44:43;12.40;;;7.90;;
21036;SDS011;10677;50.942;4.028;2023-07-09T01:47:11;11.10;;;7.10;;
21036;SDS011;10677;50.942;4.028;2023-07-09T01:49:37;10.07;;;6.20;;
21036;SDS011;10677;50.942;4.028;2023-07-09T01:52:05;11.70;;;7.20;;
21036;SDS011;10677;50.942;4.028;2023-07-09T01:54:33;13.45;;;7.20;;
21036;SDS011;10677;50.942;4.028;2023-07-09T01:57:22;12.75;;;6.93;;
21036;SDS011;10677;50.942;4.028;2023-07-09T01:59:52;9.60;;;7.15;;
21036;SDS011;10677;50.942;4.028;2023-07-09T02:02:20;11.02;;;7.40;;
21036;SDS011;10677;50.942;4.028;2023-07-09T02:04:47;12.50;;;6.78;;
21036;SDS011;10677;50.942;4.028;2023-07-09T02:07:14;11.38;;;6.40;;
21036;SDS011;10677;50.942;4.028;2023-07-09T02:09:41;10.90;;;7.15;;
21036;SDS011;10677;50.942;4.028;2023-07-09T02:12:07;11.13;;;7.38;;
21036;SDS011;10677;50.942;4.028;2023-07-09T02:14:34;10.38;;;6.63;;
21036;SDS011;10677;50.942;4.028;2023-07-09T02:17:00;12.18;;;6.80;;
21036;SDS011;10677;50.942;4.028;2023-07-09T02:19:27;12.27;;;6.82;;
21036;SDS011;10677;50.942;4.028;2023-07-09T02:21:54;11.43;;;6.88;;
21036;SDS011;10677;50.942;4.028;2023-07-09T02:24:20;11.63;;;6.97;;
21036;SDS011;10677;50.942;4.028;2023-07-09T02:26:49;15.02;;;7.55;;
21036;SDS011;10677;50.942;4.028;2023-07-09T02:29:25;11.05;;;6.47;;
21036;SDS011;10677;50.942;4.028;2023-07-09T02:31:53;15.18;;;6.80;;
21036;SDS011;10677;50.942;4.028;2023-07-09T02:34:20;17.35;;;7.03;;
21036;SDS011;10677;50.942;4.028;2023-07-09T02:36:50;13.40;;;7.00;;
21036;SDS011;10677;50.942;4.028;2023-07-09T02:39:16;10.75;;;6.30;;
21036;SDS011;10677;50.942;4.028;2023-07-09T02:41:42;11.68;;;7.05;;
21036;SDS011;10677;50.942;4.028;2023-07-09T02:44:08;11.57;;;6.75;;
21036;SDS011;10677;50.942;4.028;2023-07-09T02:46:34;10.63;;;6.43;;
21036;SDS011;10677;50.942;4.028;2023-07-09T02:49:02;11.32;;;6.07;;
21036;SDS011;10677;50.942;4.028;2023-07-09T02:51:29;10.40;;;6.95;;
21036;SDS011;10677;50.942;4.028;2023-07-09T02:53:55;11.20;;;6.65;;
21036;SDS011;10677;50.942;4.028;2023-07-09T02:56:21;10.57;;;6.22;;
21036;SDS011;10677;50.942;4.028;2023-07-09T02:58:47;12.02;;;6.15;;
21036;SDS011;10677;50.942;4.028;2023-07-09T03:01:13;10.23;;;6.50;;
21036;SDS011;10677;50.942;4.028;2023-07-09T03:03:39;12.48;;;6.25;;
21036;SDS011;10677;50.942;4.028;2023-07-09T03:06:05;12.73;;;6.43;;
21036;SDS011;10677;50.942;4.028;2023-07-09T03:08:32;9.43;;;6.13;;
21036;SDS011;10677;50.942;4.028;2023-07-09T03:10:57;8.68;;;6.18;;
21036;SDS011;10677;50.942;4.028;2023-07-09T03:13:23;11.95;;;7.57;;
21036;SDS011;10677;50.942;4.028;2023-07-09T03:15:55;11.82;;;7.75;;
21036;SDS011;10677;50.942;4.028;2023-07-09T03:18:22;11.63;;;7.20;;
21036;SDS011;10677;50.942;4.028;2023-07-09T03:20:48;11.73;;;8.30;;
21036;SDS011;10677;50.942;4.028;2023-07-09T03:23:14;14.02;;;9.52;;
21036;SDS011;10677;50.942;4.028;2023-07-09T03:25:43;15.60;;;9.80;;
21036;SDS011;10677;50.942;4.028;2023-07-09T03:28:12;15.95;;;10.55;;
21036;SDS011;10677;50.942;4.028;2023-07-09T03:30:43;15.57;;;10.82;;
21036;SDS011;10677;50.942;4.028;2023-07-09T03:33:10;15.27;;;11.13;;
21036;SDS011;10677;50.942;4.028;2023-07-09T03:35:37;23.13;;;12.70;;
21036;SDS011;10677;50.942;4.028;2023-07-09T03:38:06;19.30;;;12.82;;
21036;SDS011;10677;50.942;4.028;2023-07-09T03:40:33;25.55;;;16.38;;
21036;SDS011;10677;50.942;4.028;2023-07-09T03:42:59;24.52;;;16.98;;
21036;SDS011;10677;50.942;4.028;2023-07-09T03:45:25;22.98;;;16.05;;
21036;SDS011;10677;50.942;4.028;2023-07-09T03:47:51;25.63;;;17.80;;
21036;SDS011;10677;50.942;4.028;2023-07-09T03:50:17;26.42;;;19.13;;
21036;SDS011;10677;50.942;4.028;2023-07-09T03:52:43;22.88;;;17.23;;
21036;SDS011;10677;50.942;4.028;2023-07-09T03:55:09;23.20;;;17.60;;
21036;SDS011;10677;50.942;4.028;2023-07-09T03:57:34;29.50;;;20.98;;
21036;SDS011;10677;50.942;4.028;2023-07-09T04:00:01;25.88;;;20.13;;
21036;SDS011;10677;50.942;4.028;2023-07-09T04:02:28;29.33;;;23.42;;
21036;SDS011;10677;50.942;4.028;2023-07-09T04:04:54;33.72;;;23.73;;
21036;SDS011;10677;50.942;4.028;2023-07-09T04:07:20;29.02;;;21.73;;
21036;SDS011;10677;50.942;4.028;2023-07-09T04:09:45;27.65;;;19.20;;
21036;SDS011;10677;50.942;4.028;2023-07-09T04:12:11;20.58;;;14.65;;
21036;SDS011;10677;50.942;4.028;2023-07-09T04:14:37;21.13;;;14.82;;
21036;SDS011;10677;50.942;4.028;2023-07-09T04:17:03;22.73;;;16.23;;
21036;SDS011;10677;50.942;4.028;2023-07-09T04:19:29;26.02;;;15.93;;
21036;SDS011;10677;50.942;4.028;2023-07-09T04:21:54;24.85;;;17.13;;
21036;SDS011;10677;50.942;4.028;2023-07-09T04:24:20;25.95;;;17.48;;
21036;SDS011;10677;50.942;4.028;2023-07-09T04:26:46;25.33;;;20.50;;
21036;SDS011;10677;50.942;4.028;2023-07-09T04:29:12;33.22;;;24.20;;
21036;SDS011;10677;50.942;4.028;2023-07-09T04:31:39;28.48;;;23.20;;
21036;SDS011;10677;50.942;4.028;2023-07-09T04:34:06;37.65;;;27.13;;
21036;SDS011;10677;50.942;4.028;2023-07-09T04:36:32;35.90;;;27.17;;
21036;SDS011;10677;50.942;4.028;2023-07-09T04:38:58;39.58;;;29.85;;
21036;SDS011;10677;50.942;4.028;2023-07-09T04:41:24;44.90;;;34.17;;
21036;SDS011;10677;50.942;4.028;2023-07-09T04:43:50;52.00;;;40.60;;
21036;SDS011;10677;50.942;4.028;2023-07-09T04:46:16;48.45;;;39.13;;
21036;SDS011;10677;50.942;4.028;2023-07-09T04:48:41;58.22;;;45.67;;
21036;SDS011;10677;50.942;4.028;2023-07-09T04:51:07;60.53;;;47.40;;
21036;SDS011;10677;50.942;4.028;2023-07-09T04:53:33;67.68;;;53.55;;
21036;SDS011;10677;50.942;4.028;2023-07-09T04:55:59;72.28;;;57.63;;
21036;SDS011;10677;50.942;4.028;2023-07-09T04:58:27;68.78;;;57.85;;
21036;SDS011;10677;50.942;4.028;2023-07-09T05:00:56;71.20;;;59.45;;
21036;SDS011;10677;50.942;4.028;2023-07-09T05:03:23;66.65;;;55.58;;
21036;SDS011;10677;50.942;4.028;2023-07-09T05:05:49;74.43;;;60.05;;
21036;SDS011;10677;50.942;4.028;2023-07-09T05:08:15;74.43;;;59.13;;
21036;SDS011;10677;50.942;4.028;2023-07-09T05:10:42;82.22;;;63.80;;
21036;SDS011;10677;50.942;4.028;2023-07-09T05:13:11;76.70;;;59.55;;
21036;SDS011;10677;50.942;4.028;2023-07-09T05:15:41;73.95;;;61.75;;
21036;SDS011;10677;50.942;4.028;2023-07-09T05:18:09;77.53;;;61.65;;
21036;SDS011;10677;50.942;4.028;2023-07-09T05:20:36;75.72;;;61.30;;
21036;SDS011;10677;50.942;4.028;2023-07-09T05:23:02;77.78;;;63.08;;
21036;SDS011;10677;50.942;4.028;2023-07-09T05:25:28;83.38;;;65.60;;
21036;SDS011;10677;50.942;4.028;2023-07-09T05:27:54;76.97;;;63.53;;
21036;SDS011;10677;50.942;4.028;2023-07-09T05:30:19;75.68;;;63.05;;
21036;SDS011;10677;50.942;4.028;2023-07-09T05:32:45;74.43;;;59.15;;
21036;SDS011;10677;50.942;4.028;2023-07-09T05:35:12;77.75;;;61.03;;
21036;SDS011;10677;50.942;4.028;2023-07-09T05:37:37;72.53;;;57.50;;
21036;SDS011;10677;50.942;4.028;2023-07-09T05:40:04;71.60;;;57.22;;
21036;SDS011;10677;50.942;4.028;2023-07-09T05:42:31;72.45;;;57.53;;
21036;SDS011;10677;50.942;4.028;2023-07-09T05:44:57;66.60;;;56.30;;
21036;SDS011;10677;50.942;4.028;2023-07-09T05:47:23;73.18;;;56.47;;
21036;SDS011;10677;50.942;4.028;2023-07-09T05:49:50;68.28;;;56.67;;
21036;SDS011;10677;50.942;4.028;2023-07-09T05:52:16;67.55;;;56.47;;
21036;SDS011;10677;50.942;4.028;2023-07-09T05:54:43;63.70;;;53.58;;
21036;SDS011;10677;50.942;4.028;2023-07-09T05:57:09;69.03;;;56.13;;
21036;SDS011;10677;50.942;4.028;2023-07-09T05:59:35;71.95;;;58.78;;
21036;SDS011;10677;50.942;4.028;2023-07-09T06:02:00;71.53;;;56.72;;
21036;SDS011;10677;50.942;4.028;2023-07-09T06:04:27;71.78;;;57.33;;
21036;SDS011;10677;50.942;4.028;2023-07-09T06:06:53;70.47;;;57.47;;
21036;SDS011;10677;50.942;4.028;2023-07-09T06:09:19;68.05;;;53.70;;
21036;SDS011;10677;50.942;4.028;2023-07-09T06:11:45;65.95;;;54.75;;
21036;SDS011;10677;50.942;4.028;2023-07-09T06:14:10;69.63;;;54.95;;
21036;SDS011;10677;50.942;4.028;2023-07-09T06:16:36;70.07;;;55.80;;
21036;SDS011;10677;50.942;4.028;2023-07-09T06:19:02;67.80;;;53.75;;
21036;SDS011;10677;50.942;4.028;2023-07-09T06:21:29;60.13;;;48.20;;
21036;SDS011;10677;50.942;4.028;2023-07-09T06:23:55;63.08;;;48.95;;
21036;SDS011;10677;50.942;4.028;2023-07-09T06:26:21;61.92;;;46.65;;
21036;SDS011;10677;50.942;4.028;2023-07-09T06:28:46;59.10;;;46.70;;
21036;SDS011;10677;50.942;4.028;2023-07-09T06:31:12;60.50;;;46.80;;
21036;SDS011;10677;50.942;4.028;2023-07-09T06:33:37;54.88;;;43.22;;
21036;SDS011;10677;50.942;4.028;2023-07-09T06:36:03;58.50;;;42.00;;
21036;SDS011;10677;50.942;4.028;2023-07-09T06:38:30;48.95;;;38.88;;
21036;SDS011;10677;50.942;4.028;2023-07-09T06:40:57;48.33;;;36.90;;
21036;SDS011;10677;50.942;4.028;2023-07-09T06:43:22;51.50;;;38.00;;
21036;SDS011;10677;50.942;4.028;2023-07-09T06:45:52;48.13;;;36.83;;
21036;SDS011;10677;50.942;4.028;2023-07-09T06:48:22;52.60;;;37.65;;
21036;SDS011;10677;50.942;4.028;2023-07-09T06:50:49;43.85;;;35.10;;
21036;SDS011;10677;50.942;4.028;2023-07-09T06:53:15;43.88;;;33.22;;
21036;SDS011;10677;50.942;4.028;2023-07-09T06:55:41;51.25;;;34.60;;
21036;SDS011;10677;50.942;4.028;2023-07-09T06:58:07;43.55;;;32.72;;
21036;SDS011;10677;50.942;4.028;2023-07-09T07:00:34;41.35;;;32.65;;
21036;SDS011;10677;50.942;4.028;2023-07-09T07:03:00;39.33;;;29.42;;
21036;SDS011;10677;50.942;4.028;2023-07-09T07:05:29;40.67;;;27.77;;
21036;SDS011;10677;50.942;4.028;2023-07-09T07:07:56;40.10;;;27.88;;
21036;SDS011;10677;50.942;4.028;2023-07-09T07:10:22;36.67;;;27.42;;
21036;SDS011;10677;50.942;4.028;2023-07-09T07:12:47;39.78;;;27.77;;
21036;SDS011;10677;50.942;4.028;2023-07-09T07:15:15;36.35;;;27.23;;
21036;SDS011;10677;50.942;4.028;2023-07-09T07:17:42;37.88;;;28.20;;
21036;SDS011;10677;50.942;4.028;2023-07-09T07:20:08;34.92;;;25.65;;
21036;SDS011;10677;50.942;4.028;2023-07-09T07:22:36;38.70;;;27.35;;
21036;SDS011;10677;50.942;4.028;2023-07-09T07:25:03;36.58;;;25.58;;
21036;SDS011;10677;50.942;4.028;2023-07-09T07:27:32;36.55;;;25.73;;
21036;SDS011;10677;50.942;4.028;2023-07-09T07:29:58;36.63;;;26.73;;
21036;SDS011;10677;50.942;4.028;2023-07-09T07:32:24;34.50;;;24.63;;
21036;SDS011;10677;50.942;4.028;2023-07-09T07:34:50;45.20;;;26.67;;
21036;SDS011;10677;50.942;4.028;2023-07-09T07:37:17;33.17;;;24.45;;
21036;SDS011;10677;50.942;4.028;2023-07-09T07:39:47;28.90;;;22.00;;
21036;SDS011;10677;50.942;4.028;2023-07-09T07:42:13;29.17;;;20.00;;
21036;SDS011;10677;50.942;4.028;2023-07-09T07:44:39;28.10;;;19.45;;
21036;SDS011;10677;50.942;4.028;2023-07-09T07:47:05;25.35;;;18.48;;
21036;SDS011;10677;50.942;4.028;2023-07-09T07:49:31;27.70;;;18.52;;
21036;SDS011;10677;50.942;4.028;2023-07-09T07:51:57;25.40;;;18.17;;
21036;SDS011;10677;50.942;4.028;2023-07-09T07:54:23;28.60;;;17.92;;
21036;SDS011;10677;50.942;4.028;2023-07-09T07:56:48;24.50;;;16.83;;
21036;SDS011;10677;50.942;4.028;2023-07-09T07:59:14;25.98;;;17.17;;
21036;SDS011;10677;50.942;4.028;2023-07-09T08:01:41;24.02;;;16.45;;
21036;SDS011;10677;50.942;4.028;2023-07-09T08:04:07;25.42;;;16.83;;
21036;SDS011;10677;50.942;4.028;2023-07-09T08:06:33;22.45;;;17.23;;
21036;SDS011;10677;50.942;4.028;2023-07-09T08:08:59;24.33;;;16.98;;
21036;SDS011;10677;50.942;4.028;2023-07-09T08:11:24;26.88;;;19.15;;
21036;SDS011;10677;50.942;4.028;2023-07-09T08:13:50;29.88;;;17.30;;
21036;SDS011;10677;50.942;4.028;2023-07-09T08:16:16;25.23;;;17.02;;
21036;SDS011;10677;50.942;4.028;2023-07-09T08:18:42;22.80;;;17.88;;
21036;SDS011;10677;50.942;4.028;2023-07-09T08:21:08;24.00;;;17.92;;
21036;SDS011;10677;50.942;4.028;2023-07-09T08:23:34;26.23;;;17.23;;
21036;SDS011;10677;50.942;4.028;2023-07-09T08:26:00;27.15;;;17.42;;
21036;SDS011;10677;50.942;4.028;2023-07-09T08:28:28;24.38;;;16.05;;
21036;SDS011;10677;50.942;4.028;2023-07-09T08:30:55;22.92;;;16.00;;
21036;SDS011;10677;50.942;4.028;2023-07-09T08:33:21;26.60;;;17.75;;
21036;SDS011;10677;50.942;4.028;2023-07-09T08:35:51;29.25;;;18.73;;
21036;SDS011;10677;50.942;4.028;2023-07-09T08:38:18;29.45;;;20.60;;
21036;SDS011;10677;50.942;4.028;2023-07-09T08:41:00;27.40;;;20.58;;
21036;SDS011;10677;50.942;4.028;2023-07-09T08:43:33;27.70;;;18.23;;
21036;SDS011;10677;50.942;4.028;2023-07-09T08:46:10;24.50;;;17.08;;
21036;SDS011;10677;50.942;4.028;2023-07-09T08:48:57;22.75;;;17.15;;
21036;SDS011;10677;50.942;4.028;2023-07-09T08:51:28;27.27;;;19.00;;
21036;SDS011;10677;50.942;4.028;2023-07-09T08:54:01;25.15;;;18.60;;
21036;SDS011;10677;50.942;4.028;2023-07-09T08:56:28;26.58;;;17.95;;
21036;SDS011;10677;50.942;4.028;2023-07-09T08:58:58;29.48;;;19.67;;
21036;SDS011;10677;50.942;4.028;2023-07-09T09:01:40;25.65;;;16.58;;
21036;SDS011;10677;50.942;4.028;2023-07-09T09:04:24;24.45;;;16.70;;
21036;SDS011;10677;50.942;4.028;2023-07-09T09:06:59;22.27;;;16.25;;
21036;SDS011;10677;50.942;4.028;2023-07-09T09:15:31;26.20;;;18.98;;
21036;SDS011;10677;50.942;4.028;2023-07-09T09:17:43;23.33;;;17.83;;
21036;SDS011;10677;50.942;4.028;2023-07-09T09:20:15;24.08;;;19.45;;
21036;SDS011;10677;50.942;4.028;2023-07-09T09:22:53;27.73;;;19.17;;
21036;SDS011;10677;50.942;4.028;2023-07-09T09:25:31;22.35;;;17.25;;
21036;SDS011;10677;50.942;4.028;2023-07-09T09:27:59;23.00;;;17.27;;
21036;SDS011;10677;50.942;4.028;2023-07-09T09:30:25;22.88;;;16.48;;
21036;SDS011;10677;50.942;4.028;2023-07-09T09:32:54;20.95;;;14.68;;
21036;SDS011;10677;50.942;4.028;2023-07-09T09:35:26;17.80;;;12.63;;
21036;SDS011;10677;50.942;4.028;2023-07-09T09:38:00;14.68;;;9.90;;
21036;SDS011;10677;50.942;4.028;2023-07-09T09:40:27;14.70;;;10.98;;
21036;SDS011;10677;50.942;4.028;2023-07-09T09:42:55;14.85;;;10.60;;
21036;SDS011;10677;50.942;4.028;2023-07-09T09:45:27;16.33;;;11.57;;
21036;SDS011;10677;50.942;4.028;2023-07-09T09:48:03;11.40;;;9.10;;
21036;SDS011;10677;50.942;4.028;2023-07-09T09:50:54;13.45;;;8.40;;
21036;SDS011;10677;50.942;4.028;2023-07-09T09:53:25;10.43;;;7.32;;
21036;SDS011;10677;50.942;4.028;2023-07-09T09:55:53;12.68;;;7.50;;
21036;SDS011;10677;50.942;4.028;2023-07-09T09:58:24;13.10;;;7.70;;
21036;SDS011;10677;50.942;4.028;2023-07-09T10:00:56;11.95;;;6.78;;
21036;SDS011;10677;50.942;4.028;2023-07-09T10:03:34;9.38;;;5.97;;
21036;SDS011;10677;50.942;4.028;2023-07-09T10:06:12;9.25;;;5.15;;
21036;SDS011;10677;50.942;4.028;2023-07-09T10:16:46;8.07;;;4.72;;
21036;SDS011;10677;50.942;4.028;2023-07-09T10:19:19;8.77;;;5.20;;
21036;SDS011;10677;50.942;4.028;2023-07-09T10:27:10;7.97;;;4.43;;
21036;SDS011;10677;50.942;4.028;2023-07-09T10:32:37;14.15;;;5.65;;
21036;SDS011;10677;50.942;4.028;2023-07-09T10:35:22;17.00;;;5.18;;
21036;SDS011;10677;50.942;4.028;2023-07-09T10:37:53;9.10;;;4.70;;
21036;SDS011;10677;50.942;4.028;2023-07-09T10:40:37;8.27;;;4.68;;
21036;SDS011;10677;50.942;4.028;2023-07-09T10:43:10;7.90;;;4.22;;
21036;SDS011;10677;50.942;4.028;2023-07-09T10:45:46;9.95;;;4.18;;
21036;SDS011;10677;50.942;4.028;2023-07-09T10:48:17;6.47;;;4.05;;
21036;SDS011;10677;50.942;4.028;2023-07-09T10:50:54;10.57;;;4.32;;
21036;SDS011;10677;50.942;4.028;2023-07-09T11:01:32;8.07;;;4.03;;
21036;SDS011;10677;50.942;4.028;2023-07-09T11:06:47;6.88;;;4.00;;
21036;SDS011;10677;50.942;4.028;2023-07-09T11:09:18;7.72;;;3.88;;
21036;SDS011;10677;50.942;4.028;2023-07-09T11:11:55;6.65;;;4.13;;
21036;SDS011;10677;50.942;4.028;2023-07-09T11:14:30;7.40;;;4.25;;
21036;SDS011;10677;50.942;4.028;2023-07-09T11:16:58;6.53;;;4.20;;
21036;SDS011;10677;50.942;4.028;2023-07-09T11:19:26;8.90;;;4.03;;
21036;SDS011;10677;50.942;4.028;2023-07-09T11:24:48;7.40;;;4.20;;
21036;SDS011;10677;50.942;4.028;2023-07-09T11:27:24;6.80;;;3.72;;
21036;SDS011;10677;50.942;4.028;2023-07-09T11:30:02;10.65;;;3.83;;
21036;SDS011;10677;50.942;4.028;2023-07-09T11:32:46;8.00;;;4.10;;
21036;SDS011;10677;50.942;4.028;2023-07-09T11:35:23;8.35;;;3.42;;
21036;SDS011;10677;50.942;4.028;2023-07-09T11:37:54;5.90;;;3.38;;
21036;SDS011;10677;50.942;4.028;2023-07-09T11:40:21;6.68;;;3.38;;
21036;SDS011;10677;50.942;4.028;2023-07-09T11:45:25;7.25;;;3.67;;
21036;SDS011;10677;50.942;4.028;2023-07-09T11:48:05;6.70;;;3.90;;
21036;SDS011;10677;50.942;4.028;2023-07-09T11:50:45;11.45;;;3.42;;
21036;SDS011;10677;50.942;4.028;2023-07-09T11:55:54;8.60;;;4.07;;
21036;SDS011;10677;50.942;4.028;2023-07-09T11:58:20;8.07;;;3.80;;
21036;SDS011;10677;50.942;4.028;2023-07-09T12:00:46;8.93;;;4.28;;
21036;SDS011;10677;50.942;4.028;2023-07-09T12:03:19;7.43;;;4.22;;
21036;SDS011;10677;50.942;4.028;2023-07-09T12:05:51;8.05;;;3.72;;
21036;SDS011;10677;50.942;4.028;2023-07-09T12:08:23;6.72;;;3.97;;
21036;SDS011;10677;50.942;4.028;2023-07-09T12:10:53;10.70;;;4.00;;
21036;SDS011;10677;50.942;4.028;2023-07-09T12:13:19;8.93;;;4.35;;
21036;SDS011;10677;50.942;4.028;2023-07-09T12:15:45;7.60;;;3.90;;
21036;SDS011;10677;50.942;4.028;2023-07-09T12:18:14;8.00;;;3.92;;
21036;SDS011;10677;50.942;4.028;2023-07-09T12:20:41;8.95;;;4.32;;
21036;SDS011;10677;50.942;4.028;2023-07-09T12:25:53;8.70;;;4.32;;
21036;SDS011;10677;50.942;4.028;2023-07-09T12:28:19;10.30;;;5.03;;
21036;SDS011;10677;50.942;4.028;2023-07-09T12:30:47;10.57;;;4.85;;
21036;SDS011;10677;50.942;4.028;2023-07-09T12:33:22;10.32;;;5.07;;
21036;SDS011;10677;50.942;4.028;2023-07-09T12:35:56;9.48;;;4.68;;
21036;SDS011;10677;50.942;4.028;2023-07-09T12:38:29;8.63;;;4.70;;
21036;SDS011;10677;50.942;4.028;2023-07-09T12:41:05;11.82;;;5.88;;
21036;SDS011;10677;50.942;4.028;2023-07-09T12:43:36;13.90;;;5.63;;
21036;SDS011;10677;50.942;4.028;2023-07-09T12:46:03;12.32;;;5.22;;
21036;SDS011;10677;50.942;4.028;2023-07-09T12:48:29;16.08;;;6.22;;
21036;SDS011;10677;50.942;4.028;2023-07-09T12:50:56;11.05;;;5.30;;
21036;SDS011;10677;50.942;4.028;2023-07-09T12:53:25;8.90;;;5.03;;
21036;SDS011;10677;50.942;4.028;2023-07-09T12:55:54;8.77;;;4.97;;
21036;SDS011;10677;50.942;4.028;2023-07-09T12:58:23;11.20;;;5.30;;
21036;SDS011;10677;50.942;4.028;2023-07-09T13:00:56;8.95;;;5.60;;
21036;SDS011;10677;50.942;4.028;2023-07-09T13:03:27;11.55;;;5.47;;
21036;SDS011;10677;50.942;4.028;2023-07-09T13:05:55;9.98;;;6.00;;
21036;SDS011;10677;50.942;4.028;2023-07-09T13:08:24;11.15;;;5.70;;
21036;SDS011;10677;50.942;4.028;2023-07-09T13:10:51;10.13;;;5.22;;
21036;SDS011;10677;50.942;4.028;2023-07-09T13:13:20;10.13;;;5.70;;
21036;SDS011;10677;50.942;4.028;2023-07-09T13:15:48;10.90;;;6.40;;
21036;SDS011;10677;50.942;4.028;2023-07-09T13:18:26;11.35;;;6.07;;
21036;SDS011;10677;50.942;4.028;2023-07-09T13:20:55;12.38;;;6.57;;
21036;SDS011;10677;50.942;4.028;2023-07-09T13:23:28;11.85;;;6.13;;
21036;SDS011;10677;50.942;4.028;2023-07-09T13:25:57;13.80;;;7.00;;
21036;SDS011;10677;50.942;4.028;2023-07-09T13:28:30;15.10;;;7.05;;
21036;SDS011;10677;50.942;4.028;2023-07-09T13:30:57;12.18;;;6.78;;
21036;SDS011;10677;50.942;4.028;2023-07-09T13:33:26;12.20;;;7.13;;
21036;SDS011;10677;50.942;4.028;2023-07-09T13:35:52;12.30;;;7.32;;
21036;SDS011;10677;50.942;4.028;2023-07-09T13:38:19;11.32;;;7.00;;
21036;SDS011;10677;50.942;4.028;2023-07-09T13:40:47;17.10;;;7.60;;
21036;SDS011;10677;50.942;4.028;2023-07-09T13:43:17;16.17;;;6.88;;
21036;SDS011;10677;50.942;4.028;2023-07-09T13:45:46;13.70;;;8.45;;
21036;SDS011;10677;50.942;4.028;2023-07-09T13:48:15;15.00;;;8.07;;
21036;SDS011;10677;50.942;4.028;2023-07-09T13:50:44;16.25;;;7.68;;
21036;SDS011;10677;50.942;4.028;2023-07-09T13:53:14;16.73;;;8.98;;
21036;SDS011;10677;50.942;4.028;2023-07-09T13:55:44;17.65;;;9.02;;
21036;SDS011;10677;50.942;4.028;2023-07-09T13:58:14;16.02;;;10.30;;
21036;SDS011;10677;50.942;4.028;2023-07-09T14:00:42;16.98;;;9.57;;
21036;SDS011;10677;50.942;4.028;2023-07-09T14:03:30;15.85;;;9.27;;
21036;SDS011;10677;50.942;4.028;2023-07-09T14:05:56;20.88;;;9.68;;
21036;SDS011;10677;50.942;4.028;2023-07-09T14:08:21;16.23;;;10.15;;
21036;SDS011;10677;50.942;4.028;2023-07-09T14:10:47;18.48;;;9.35;;
21036;SDS011;10677;50.942;4.028;2023-07-09T14:13:15;14.88;;;9.07;;
21036;SDS011;10677;50.942;4.028;2023-07-09T14:15:43;15.75;;;9.82;;
21036;SDS011;10677;50.942;4.028;2023-07-09T14:18:12;13.70;;;9.60;;
21036;SDS011;10677;50.942;4.028;2023-07-09T14:20:40;15.65;;;9.38;;
21036;SDS011;10677;50.942;4.028;2023-07-09T14:23:08;17.50;;;10.20;;
21036;SDS011;10677;50.942;4.028;2023-07-09T14:25:38;15.68;;;10.07;;
21036;SDS011;10677;50.942;4.028;2023-07-09T14:28:07;17.58;;;10.70;;
21036;SDS011;10677;50.942;4.028;2023-07-09T14:30:38;14.00;;;9.63;;
21036;SDS011;10677;50.942;4.028;2023-07-09T14:33:08;16.00;;;10.40;;
21036;SDS011;10677;50.942;4.028;2023-07-09T14:35:37;19.33;;;10.98;;
21036;SDS011;10677;50.942;4.028;2023-07-09T14:38:03;18.88;;;10.77;;
21036;SDS011;10677;50.942;4.028;2023-07-09T14:40:36;19.27;;;12.82;;
21036;SDS011;10677;50.942;4.028;2023-07-09T14:43:04;19.33;;;11.70;;
21036;SDS011;10677;50.942;4.028;2023-07-09T14:45:33;16.45;;;10.25;;
21036;SDS011;10677;50.942;4.028;2023-07-09T14:47:59;18.25;;;10.98;;
21036;SDS011;10677;50.942;4.028;2023-07-09T14:50:25;16.88;;;12.65;;
21036;SDS011;10677;50.942;4.028;2023-07-09T14:52:51;18.73;;;10.75;;
21036;SDS011;10677;50.942;4.028;2023-07-09T14:55:18;17.25;;;12.93;;
21036;SDS011;10677;50.942;4.028;2023-07-09T14:57:46;21.05;;;14.23;;
21036;SDS011;10677;50.942;4.028;2023-07-09T15:00:13;17.40;;;12.82;;
21036;SDS011;10677;50.942;4.028;2023-07-09T15:02:40;20.90;;;14.20;;
21036;SDS011;10677;50.942;4.028;2023-07-09T15:05:21;18.25;;;13.00;;
21036;SDS011;10677;50.942;4.028;2023-07-09T15:07:49;16.17;;;12.13;;
21036;SDS011;10677;50.942;4.028;2023-07-09T15:10:16;17.52;;;10.63;;
21036;SDS011;10677;50.942;4.028;2023-07-09T15:12:44;16.05;;;9.77;;
21036;SDS011;10677;50.942;4.028;2023-07-09T15:15:16;15.48;;;10.02;;
21036;SDS011;10677;50.942;4.028;2023-07-09T15:17:45;15.52;;;9.32;;
21036;SDS011;10677;50.942;4.028;2023-07-09T15:20:18;15.73;;;11.13;;
21036;SDS011;10677;50.942;4.028;2023-07-09T15:22:49;17.45;;;10.55;;
21036;SDS011;10677;50.942;4.028;2023-07-09T15:25:17;17.10;;;10.05;;
21036;SDS011;10677;50.942;4.028;2023-07-09T15:27:45;16.42;;;10.35;;
21036;SDS011;10677;50.942;4.028;2023-07-09T15:30:12;16.63;;;9.40;;